Vernon, Utah
Current Conditions -  °F | °C
As of 8:35 PM on Monday 22 Dec 2014 (Local Time) from KDTA Reporting Station
Clear Clear  
Wind Chill: 26°   Ceiling: Unl
Heat Index: 36°   Visibility: 10mi
Dew Point: 21°   Wind: 20mph
Humidity: 53%   Direction: 360°N
Pressure: 30.15"   Gusts: 28mph
Location:  40.09°N, 112.43°W
Report Text: KDTA 230335Z AUTO 36017G24KT 10SM CLR 02/M06 A3015 RMK AO1 T00231063
Loading
Personal Weather Stations






























Interactive Weather Map New forecast layout! Learn more

10-Day Weather Forecast

Advertisements
Track Severe Weather on mobile